sensor_id;sensor_type;location;lat;lon;timestamp;P1;durP1;ratioP1;P2;durP2;ratioP2
72493;SDS011;60520;49.182;-0.348;2023-12-07T00:00:36;2.22;;;1.75;;
72493;SDS011;60520;49.182;-0.348;2023-12-07T00:03:03;3.20;;;2.22;;
72493;SDS011;60520;49.182;-0.348;2023-12-07T00:05:32;2.25;;;1.75;;
72493;SDS011;60520;49.182;-0.348;2023-12-07T00:07:59;2.13;;;1.73;;
72493;SDS011;60520;49.182;-0.348;2023-12-07T00:10:27;2.13;;;1.70;;
72493;SDS011;60520;49.182;-0.348;2023-12-07T00:12:55;2.33;;;1.90;;
72493;SDS011;60520;49.182;-0.348;2023-12-07T00:15:22;3.28;;;2.10;;
72493;SDS011;60520;49.182;-0.348;2023-12-07T00:17:49;3.40;;;2.00;;
72493;SDS011;60520;49.182;-0.348;2023-12-07T00:20:16;2.80;;;1.88;;
72493;SDS011;60520;49.182;-0.348;2023-12-07T00:22:43;2.17;;;1.50;;
72493;SDS011;60520;49.182;-0.348;2023-12-07T00:25:10;3.53;;;1.70;;
72493;SDS011;60520;49.182;-0.348;2023-12-07T00:27:40;3.17;;;2.20;;
72493;SDS011;60520;49.182;-0.348;2023-12-07T00:30:07;2.15;;;1.67;;
72493;SDS011;60520;49.182;-0.348;2023-12-07T00:32:35;2.65;;;2.03;;
72493;SDS011;60520;49.182;-0.348;2023-12-07T00:35:02;2.90;;;1.90;;
72493;SDS011;60520;49.182;-0.348;2023-12-07T00:37:29;2.70;;;1.80;;
72493;SDS011;60520;49.182;-0.348;2023-12-07T00:39:56;2.35;;;1.90;;
72493;SDS011;60520;49.182;-0.348;2023-12-07T00:42:23;3.22;;;1.95;;
72493;SDS011;60520;49.182;-0.348;2023-12-07T00:44:52;4.18;;;1.90;;
72493;SDS011;60520;49.182;-0.348;2023-12-07T00:47:20;2.88;;;2.08;;
72493;SDS011;60520;49.182;-0.348;2023-12-07T00:49:47;3.25;;;1.90;;
72493;SDS011;60520;49.182;-0.348;2023-12-07T00:52:14;2.08;;;1.70;;
72493;SDS011;60520;49.182;-0.348;2023-12-07T00:54:42;1.75;;;1.58;;
72493;SDS011;60520;49.182;-0.348;2023-12-07T00:57:09;3.03;;;1.90;;
72493;SDS011;60520;49.182;-0.348;2023-12-07T00:59:36;2.20;;;1.63;;
72493;SDS011;60520;49.182;-0.348;2023-12-07T01:02:04;2.47;;;1.65;;
72493;SDS011;60520;49.182;-0.348;2023-12-07T01:04:32;3.08;;;2.03;;
72493;SDS011;60520;49.182;-0.348;2023-12-07T01:06:59;2.42;;;1.83;;
72493;SDS011;60520;49.182;-0.348;2023-12-07T01:09:26;3.33;;;2.13;;
72493;SDS011;60520;49.182;-0.348;2023-12-07T01:11:54;1.92;;;1.70;;
72493;SDS011;60520;49.182;-0.348;2023-12-07T01:14:23;3.63;;;1.90;;
72493;SDS011;60520;49.182;-0.348;2023-12-07T01:16:50;2.45;;;1.88;;
72493;SDS011;60520;49.182;-0.348;2023-12-07T01:19:18;2.20;;;1.77;;
72493;SDS011;60520;49.182;-0.348;2023-12-07T01:21:46;2.92;;;1.95;;
72493;SDS011;60520;49.182;-0.348;2023-12-07T01:24:13;2.75;;;1.90;;
72493;SDS011;60520;49.182;-0.348;2023-12-07T01:26:40;2.13;;;1.65;;
72493;SDS011;60520;49.182;-0.348;2023-12-07T01:29:08;2.00;;;1.58;;
72493;SDS011;60520;49.182;-0.348;2023-12-07T01:31:35;2.50;;;1.88;;
72493;SDS011;60520;49.182;-0.348;2023-12-07T01:34:02;2.10;;;1.67;;
72493;SDS011;60520;49.182;-0.348;2023-12-07T01:36:30;3.08;;;1.98;;
72493;SDS011;60520;49.182;-0.348;2023-12-07T01:38:58;2.92;;;1.92;;
72493;SDS011;60520;49.182;-0.348;2023-12-07T01:41:25;3.03;;;1.80;;
72493;SDS011;60520;49.182;-0.348;2023-12-07T01:43:52;3.10;;;1.88;;
72493;SDS011;60520;49.182;-0.348;2023-12-07T01:46:19;2.00;;;1.70;;
72493;SDS011;60520;49.182;-0.348;2023-12-07T01:48:46;2.65;;;1.95;;
72493;SDS011;60520;49.182;-0.348;2023-12-07T01:51:14;2.00;;;1.60;;
72493;SDS011;60520;49.182;-0.348;2023-12-07T01:53:43;2.85;;;1.90;;
72493;SDS011;60520;49.182;-0.348;2023-12-07T01:56:10;2.50;;;1.80;;
72493;SDS011;60520;49.182;-0.348;2023-12-07T01:58:38;3.08;;;1.70;;
72493;SDS011;60520;49.182;-0.348;2023-12-07T02:01:05;2.40;;;1.77;;
72493;SDS011;60520;49.182;-0.348;2023-12-07T02:03:32;2.17;;;1.63;;
72493;SDS011;60520;49.182;-0.348;2023-12-07T02:05:59;2.78;;;1.88;;
72493;SDS011;60520;49.182;-0.348;2023-12-07T02:08:28;3.17;;;2.03;;
72493;SDS011;60520;49.182;-0.348;2023-12-07T02:10:56;3.00;;;1.83;;
72493;SDS011;60520;49.182;-0.348;2023-12-07T02:13:24;3.83;;;1.80;;
72493;SDS011;60520;49.182;-0.348;2023-12-07T02:15:51;2.92;;;1.92;;
72493;SDS011;60520;49.182;-0.348;2023-12-07T02:18:21;1.95;;;1.75;;
72493;SDS011;60520;49.182;-0.348;2023-12-07T02:20:52;3.13;;;2.00;;
72493;SDS011;60520;49.182;-0.348;2023-12-07T02:23:22;3.17;;;1.60;;
72493;SDS011;60520;49.182;-0.348;2023-12-07T02:25:51;1.95;;;1.52;;
72493;SDS011;60520;49.182;-0.348;2023-12-07T02:28:20;2.78;;;1.60;;
72493;SDS011;60520;49.182;-0.348;2023-12-07T02:30:47;3.17;;;1.98;;
72493;SDS011;60520;49.182;-0.348;2023-12-07T02:33:14;2.70;;;1.80;;
72493;SDS011;60520;49.182;-0.348;2023-12-07T02:35:41;2.17;;;1.52;;
72493;SDS011;60520;49.182;-0.348;2023-12-07T02:38:09;2.58;;;1.90;;
72493;SDS011;60520;49.182;-0.348;2023-12-07T02:40:36;2.13;;;1.60;;
72493;SDS011;60520;49.182;-0.348;2023-12-07T02:43:04;3.40;;;1.90;;
72493;SDS011;60520;49.182;-0.348;2023-12-07T02:45:32;2.50;;;1.70;;
72493;SDS011;60520;49.182;-0.348;2023-12-07T02:48:00;2.42;;;1.85;;
72493;SDS011;60520;49.182;-0.348;2023-12-07T02:50:27;2.08;;;1.60;;
72493;SDS011;60520;49.182;-0.348;2023-12-07T02:52:54;2.35;;;1.60;;
72493;SDS011;60520;49.182;-0.348;2023-12-07T02:55:21;1.45;;;1.30;;
72493;SDS011;60520;49.182;-0.348;2023-12-07T02:57:49;1.98;;;1.60;;
72493;SDS011;60520;49.182;-0.348;2023-12-07T03:00:16;2.60;;;1.70;;
72493;SDS011;60520;49.182;-0.348;2023-12-07T03:02:45;2.22;;;1.73;;
72493;SDS011;60520;49.182;-0.348;2023-12-07T03:05:13;3.90;;;1.75;;
72493;SDS011;60520;49.182;-0.348;2023-12-07T03:07:40;2.60;;;1.60;;
72493;SDS011;60520;49.182;-0.348;2023-12-07T03:10:07;2.10;;;1.70;;
72493;SDS011;60520;49.182;-0.348;2023-12-07T03:12:34;2.85;;;1.70;;
72493;SDS011;60520;49.182;-0.348;2023-12-07T03:15:02;2.05;;;1.50;;
72493;SDS011;60520;49.182;-0.348;2023-12-07T03:17:29;1.75;;;1.52;;
72493;SDS011;60520;49.182;-0.348;2023-12-07T03:19:58;1.92;;;1.35;;
72493;SDS011;60520;49.182;-0.348;2023-12-07T03:22:25;2.22;;;1.60;;
72493;SDS011;60520;49.182;-0.348;2023-12-07T03:24:52;2.38;;;1.50;;
72493;SDS011;60520;49.182;-0.348;2023-12-07T03:27:19;1.92;;;1.60;;
72493;SDS011;60520;49.182;-0.348;2023-12-07T03:29:46;2.08;;;1.48;;
72493;SDS011;60520;49.182;-0.348;2023-12-07T03:32:13;2.85;;;1.73;;
72493;SDS011;60520;49.182;-0.348;2023-12-07T03:34:40;1.92;;;1.45;;
72493;SDS011;60520;49.182;-0.348;2023-12-07T03:37:08;2.13;;;1.48;;
72493;SDS011;60520;49.182;-0.348;2023-12-07T03:39:35;2.20;;;1.55;;
72493;SDS011;60520;49.182;-0.348;2023-12-07T03:42:03;3.33;;;1.75;;
72493;SDS011;60520;49.182;-0.348;2023-12-07T03:44:30;2.42;;;1.50;;
72493;SDS011;60520;49.182;-0.348;2023-12-07T03:46:57;2.83;;;1.60;;
72493;SDS011;60520;49.182;-0.348;2023-12-07T03:49:24;1.92;;;1.40;;
72493;SDS011;60520;49.182;-0.348;2023-12-07T03:51:51;2.60;;;1.50;;
72493;SDS011;60520;49.182;-0.348;2023-12-07T03:54:20;2.95;;;1.70;;
72493;SDS011;60520;49.182;-0.348;2023-12-07T03:56:47;2.08;;;1.58;;
72493;SDS011;60520;49.182;-0.348;2023-12-07T03:59:15;2.55;;;1.65;;
72493;SDS011;60520;49.182;-0.348;2023-12-07T04:01:43;1.85;;;1.50;;
72493;SDS011;60520;49.182;-0.348;2023-12-07T04:04:10;2.17;;;1.50;;
72493;SDS011;60520;49.182;-0.348;2023-12-07T04:06:37;2.17;;;1.58;;
72493;SDS011;60520;49.182;-0.348;2023-12-07T04:09:04;2.20;;;1.50;;
72493;SDS011;60520;49.182;-0.348;2023-12-07T04:11:34;1.90;;;1.50;;
72493;SDS011;60520;49.182;-0.348;2023-12-07T04:14:01;1.65;;;1.40;;
72493;SDS011;60520;49.182;-0.348;2023-12-07T04:16:28;2.45;;;1.67;;
72493;SDS011;60520;49.182;-0.348;2023-12-07T04:18:55;1.85;;;1.40;;
72493;SDS011;60520;49.182;-0.348;2023-12-07T04:21:23;2.40;;;1.38;;
72493;SDS011;60520;49.182;-0.348;2023-12-07T04:23:50;2.10;;;1.33;;
72493;SDS011;60520;49.182;-0.348;2023-12-07T04:26:17;2.15;;;1.50;;
72493;SDS011;60520;49.182;-0.348;2023-12-07T04:28:46;2.80;;;1.75;;
72493;SDS011;60520;49.182;-0.348;2023-12-07T04:31:13;1.92;;;1.50;;
72493;SDS011;60520;49.182;-0.348;2023-12-07T04:33:40;2.22;;;1.50;;
72493;SDS011;60520;49.182;-0.348;2023-12-07T04:36:07;2.80;;;1.83;;
72493;SDS011;60520;49.182;-0.348;2023-12-07T04:38:34;2.10;;;1.60;;
72493;SDS011;60520;49.182;-0.348;2023-12-07T04:41:02;2.10;;;1.50;;
72493;SDS011;60520;49.182;-0.348;2023-12-07T04:43:29;2.60;;;1.52;;
72493;SDS011;60520;49.182;-0.348;2023-12-07T04:45:57;2.40;;;1.88;;
72493;SDS011;60520;49.182;-0.348;2023-12-07T04:48:24;2.38;;;1.55;;
72493;SDS011;60520;49.182;-0.348;2023-12-07T04:50:51;1.52;;;1.30;;
72493;SDS011;60520;49.182;-0.348;2023-12-07T04:53:19;2.45;;;1.88;;
72493;SDS011;60520;49.182;-0.348;2023-12-07T04:55:46;2.58;;;1.58;;
72493;SDS011;60520;49.182;-0.348;2023-12-07T04:58:15;2.25;;;1.58;;
72493;SDS011;60520;49.182;-0.348;2023-12-07T05:00:42;3.00;;;1.80;;
72493;SDS011;60520;49.182;-0.348;2023-12-07T05:03:10;1.65;;;1.48;;
72493;SDS011;60520;49.182;-0.348;2023-12-07T05:05:38;2.45;;;1.67;;
72493;SDS011;60520;49.182;-0.348;2023-12-07T05:08:05;2.47;;;1.50;;
72493;SDS011;60520;49.182;-0.348;2023-12-07T05:10:32;2.38;;;1.50;;
72493;SDS011;60520;49.182;-0.348;2023-12-07T05:12:59;2.42;;;1.60;;
72493;SDS011;60520;49.182;-0.348;2023-12-07T05:15:26;2.45;;;1.50;;
72493;SDS011;60520;49.182;-0.348;2023-12-07T05:17:53;1.77;;;1.45;;
72493;SDS011;60520;49.182;-0.348;2023-12-07T05:20:22;1.70;;;1.40;;
72493;SDS011;60520;49.182;-0.348;2023-12-07T05:22:51;2.28;;;1.40;;
72493;SDS011;60520;49.182;-0.348;2023-12-07T05:25:18;1.92;;;1.50;;
72493;SDS011;60520;49.182;-0.348;2023-12-07T05:27:45;1.65;;;1.45;;
72493;SDS011;60520;49.182;-0.348;2023-12-07T05:30:14;1.58;;;1.20;;
72493;SDS011;60520;49.182;-0.348;2023-12-07T05:32:41;2.40;;;1.50;;
72493;SDS011;60520;49.182;-0.348;2023-12-07T05:35:08;2.35;;;1.40;;
72493;SDS011;60520;49.182;-0.348;2023-12-07T05:37:37;2.42;;;1.60;;
72493;SDS011;60520;49.182;-0.348;2023-12-07T05:40:04;1.50;;;1.20;;
72493;SDS011;60520;49.182;-0.348;2023-12-07T05:42:31;1.90;;;1.40;;
72493;SDS011;60520;49.182;-0.348;2023-12-07T05:44:59;2.05;;;1.50;;
72493;SDS011;60520;49.182;-0.348;2023-12-07T05:47:26;1.75;;;1.25;;
72493;SDS011;60520;49.182;-0.348;2023-12-07T05:49:53;2.00;;;1.30;;
72493;SDS011;60520;49.182;-0.348;2023-12-07T05:52:22;2.53;;;1.50;;
72493;SDS011;60520;49.182;-0.348;2023-12-07T05:54:51;2.00;;;1.52;;
72493;SDS011;60520;49.182;-0.348;2023-12-07T05:57:18;2.63;;;1.48;;
72493;SDS011;60520;49.182;-0.348;2023-12-07T05:59:45;1.77;;;1.20;;
72493;SDS011;60520;49.182;-0.348;2023-12-07T06:02:12;1.50;;;1.20;;
72493;SDS011;60520;49.182;-0.348;2023-12-07T06:04:40;2.60;;;1.25;;
72493;SDS011;60520;49.182;-0.348;2023-12-07T06:07:07;1.98;;;1.50;;
72493;SDS011;60520;49.182;-0.348;2023-12-07T06:09:34;2.00;;;1.40;;
72493;SDS011;60520;49.182;-0.348;2023-12-07T06:12:03;2.33;;;1.50;;
72493;SDS011;60520;49.182;-0.348;2023-12-07T06:14:30;1.40;;;1.15;;
72493;SDS011;60520;49.182;-0.348;2023-12-07T06:16:58;1.45;;;1.35;;
72493;SDS011;60520;49.182;-0.348;2023-12-07T06:19:25;2.17;;;1.70;;
72493;SDS011;60520;49.182;-0.348;2023-12-07T06:21:52;3.03;;;1.40;;
72493;SDS011;60520;49.182;-0.348;2023-12-07T06:24:19;2.50;;;1.20;;
72493;SDS011;60520;49.182;-0.348;2023-12-07T06:26:49;2.35;;;1.50;;
72493;SDS011;60520;49.182;-0.348;2023-12-07T06:29:18;1.88;;;1.40;;
72493;SDS011;60520;49.182;-0.348;2023-12-07T06:31:45;2.85;;;1.40;;
72493;SDS011;60520;49.182;-0.348;2023-12-07T06:34:12;1.75;;;1.35;;
72493;SDS011;60520;49.182;-0.348;2023-12-07T06:36:39;2.00;;;1.30;;
72493;SDS011;60520;49.182;-0.348;2023-12-07T06:39:07;2.33;;;1.33;;
72493;SDS011;60520;49.182;-0.348;2023-12-07T06:41:34;1.80;;;1.38;;
72493;SDS011;60520;49.182;-0.348;2023-12-07T06:44:01;1.83;;;1.30;;
72493;SDS011;60520;49.182;-0.348;2023-12-07T06:46:29;1.48;;;1.05;;
72493;SDS011;60520;49.182;-0.348;2023-12-07T06:48:56;1.85;;;1.30;;
72493;SDS011;60520;49.182;-0.348;2023-12-07T06:51:23;1.77;;;1.30;;
72493;SDS011;60520;49.182;-0.348;2023-12-07T06:53:51;1.52;;;1.23;;
72493;SDS011;60520;49.182;-0.348;2023-12-07T06:56:18;1.48;;;1.10;;
72493;SDS011;60520;49.182;-0.348;2023-12-07T06:58:46;3.17;;;1.30;;
72493;SDS011;60520;49.182;-0.348;2023-12-07T07:01:13;1.40;;;1.20;;
72493;SDS011;60520;49.182;-0.348;2023-12-07T07:03:41;1.70;;;1.27;;
72493;SDS011;60520;49.182;-0.348;2023-12-07T07:06:08;2.08;;;1.10;;
72493;SDS011;60520;49.182;-0.348;2023-12-07T07:08:35;1.60;;;1.23;;
72493;SDS011;60520;49.182;-0.348;2023-12-07T07:11:09;1.25;;;1.00;;
72493;SDS011;60520;49.182;-0.348;2023-12-07T07:13:36;2.60;;;1.30;;
72493;SDS011;60520;49.182;-0.348;2023-12-07T07:16:04;1.92;;;1.30;;
72493;SDS011;60520;49.182;-0.348;2023-12-07T07:18:31;3.05;;;1.10;;
72493;SDS011;60520;49.182;-0.348;2023-12-07T07:21:00;1.80;;;1.33;;
72493;SDS011;60520;49.182;-0.348;2023-12-07T07:23:29;1.50;;;1.00;;
72493;SDS011;60520;49.182;-0.348;2023-12-07T07:25:56;1.30;;;1.10;;
72493;SDS011;60520;49.182;-0.348;2023-12-07T07:28:23;1.52;;;1.15;;
72493;SDS011;60520;49.182;-0.348;2023-12-07T07:30:50;1.83;;;1.10;;
72493;SDS011;60520;49.182;-0.348;2023-12-07T07:33:18;2.03;;;1.30;;
72493;SDS011;60520;49.182;-0.348;2023-12-07T07:35:45;2.15;;;1.10;;
72493;SDS011;60520;49.182;-0.348;2023-12-07T07:38:14;1.50;;;1.00;;
72493;SDS011;60520;49.182;-0.348;2023-12-07T07:40:41;1.45;;;1.00;;
72493;SDS011;60520;49.182;-0.348;2023-12-07T07:43:10;1.17;;;1.08;;
72493;SDS011;60520;49.182;-0.348;2023-12-07T07:45:37;1.77;;;0.98;;
72493;SDS011;60520;49.182;-0.348;2023-12-07T07:48:04;1.40;;;1.00;;
72493;SDS011;60520;49.182;-0.348;2023-12-07T07:50:32;1.80;;;1.15;;
72493;SDS011;60520;49.182;-0.348;2023-12-07T07:53:01;1.65;;;1.05;;
72493;SDS011;60520;49.182;-0.348;2023-12-07T07:55:30;1.75;;;1.00;;
72493;SDS011;60520;49.182;-0.348;2023-12-07T07:57:57;1.10;;;1.00;;
72493;SDS011;60520;49.182;-0.348;2023-12-07T08:00:24;1.75;;;1.08;;
72493;SDS011;60520;49.182;-0.348;2023-12-07T08:02:53;1.90;;;1.23;;
72493;SDS011;60520;49.182;-0.348;2023-12-07T08:05:20;1.67;;;1.10;;
72493;SDS011;60520;49.182;-0.348;2023-12-07T08:07:47;1.20;;;0.90;;
72493;SDS011;60520;49.182;-0.348;2023-12-07T08:10:14;1.08;;;0.90;;
72493;SDS011;60520;49.182;-0.348;2023-12-07T08:12:43;1.02;;;0.90;;
72493;SDS011;60520;49.182;-0.348;2023-12-07T08:15:10;1.35;;;0.95;;
72493;SDS011;60520;49.182;-0.348;2023-12-07T08:17:37;2.78;;;0.90;;
72493;SDS011;60520;49.182;-0.348;2023-12-07T08:20:06;3.08;;;0.98;;
72493;SDS011;60520;49.182;-0.348;2023-12-07T08:22:34;3.38;;;0.82;;
72493;SDS011;60520;49.182;-0.348;2023-12-07T08:25:01;4.95;;;0.90;;
72493;SDS011;60520;49.182;-0.348;2023-12-07T08:27:30;3.67;;;0.90;;
72493;SDS011;60520;49.182;-0.348;2023-12-07T08:29:59;3.00;;;0.90;;
72493;SDS011;60520;49.182;-0.348;2023-12-07T08:32:26;4.20;;;1.08;;
72493;SDS011;60520;49.182;-0.348;2023-12-07T08:34:54;2.15;;;0.90;;
72493;SDS011;60520;49.182;-0.348;2023-12-07T08:37:21;2.92;;;0.73;;
72493;SDS011;60520;49.182;-0.348;2023-12-07T08:39:48;2.97;;;1.15;;
72493;SDS011;60520;49.182;-0.348;2023-12-07T08:42:15;4.32;;;1.00;;
72493;SDS011;60520;49.182;-0.348;2023-12-07T08:44:42;2.38;;;0.85;;
72493;SDS011;60520;49.182;-0.348;2023-12-07T08:47:11;2.15;;;0.70;;
72493;SDS011;60520;49.182;-0.348;2023-12-07T08:49:38;1.15;;;0.80;;
72493;SDS011;60520;49.182;-0.348;2023-12-07T08:52:05;5.95;;;0.98;;
72493;SDS011;60520;49.182;-0.348;2023-12-07T08:54:32;4.93;;;0.70;;
72493;SDS011;60520;49.182;-0.348;2023-12-07T08:57:01;2.00;;;0.80;;
72493;SDS011;60520;49.182;-0.348;2023-12-07T08:59:28;3.80;;;0.80;;
72493;SDS011;60520;49.182;-0.348;2023-12-07T09:01:56;2.38;;;0.90;;
72493;SDS011;60520;49.182;-0.348;2023-12-07T09:04:24;2.83;;;0.95;;
72493;SDS011;60520;49.182;-0.348;2023-12-07T09:06:52;0.70;;;0.60;;
72493;SDS011;60520;49.182;-0.348;2023-12-07T09:09:19;2.85;;;0.93;;
72493;SDS011;60520;49.182;-0.348;2023-12-07T09:11:47;2.88;;;0.90;;
72493;SDS011;60520;49.182;-0.348;2023-12-07T09:14:14;2.85;;;0.90;;
72493;SDS011;60520;49.182;-0.348;2023-12-07T09:16:44;2.80;;;0.93;;
72493;SDS011;60520;49.182;-0.348;2023-12-07T09:19:11;4.32;;;0.80;;
72493;SDS011;60520;49.182;-0.348;2023-12-07T09:21:40;1.73;;;0.75;;
72493;SDS011;60520;49.182;-0.348;2023-12-07T09:24:07;2.53;;;0.93;;
72493;SDS011;60520;49.182;-0.348;2023-12-07T09:26:34;2.10;;;1.02;;
72493;SDS011;60520;49.182;-0.348;2023-12-07T09:29:02;3.50;;;0.77;;
72493;SDS011;60520;49.182;-0.348;2023-12-07T09:31:29;2.60;;;0.80;;
72493;SDS011;60520;49.182;-0.348;2023-12-07T09:33:56;1.95;;;0.80;;
72493;SDS011;60520;49.182;-0.348;2023-12-07T09:36:23;2.53;;;0.80;;
72493;SDS011;60520;49.182;-0.348;2023-12-07T09:38:54;2.28;;;0.70;;
72493;SDS011;60520;49.182;-0.348;2023-12-07T09:41:21;1.35;;;0.70;;
72493;SDS011;60520;49.182;-0.348;2023-12-07T09:43:49;1.83;;;0.77;;
72493;SDS011;60520;49.182;-0.348;2023-12-07T09:46:16;1.70;;;0.60;;
72493;SDS011;60520;49.182;-0.348;2023-12-07T09:48:43;1.05;;;0.68;;
72493;SDS011;60520;49.182;-0.348;2023-12-07T09:51:10;1.23;;;0.70;;
72493;SDS011;60520;49.182;-0.348;2023-12-07T09:53:38;2.08;;;0.70;;
72493;SDS011;60520;49.182;-0.348;2023-12-07T09:56:08;3.58;;;0.70;;
72493;SDS011;60520;49.182;-0.348;2023-12-07T09:58:36;1.38;;;0.85;;
72493;SDS011;60520;49.182;-0.348;2023-12-07T10:01:03;1.65;;;0.70;;
72493;SDS011;60520;49.182;-0.348;2023-12-07T10:03:31;1.42;;;0.70;;
72493;SDS011;60520;49.182;-0.348;2023-12-07T10:05:58;1.05;;;0.60;;
72493;SDS011;60520;49.182;-0.348;2023-12-07T10:08:27;1.48;;;0.63;;
72493;SDS011;60520;49.182;-0.348;2023-12-07T10:11:01;1.85;;;0.73;;
72493;SDS011;60520;49.182;-0.348;2023-12-07T10:13:32;2.60;;;0.70;;
72493;SDS011;60520;49.182;-0.348;2023-12-07T10:16:06;2.30;;;0.80;;
72493;SDS011;60520;49.182;-0.348;2023-12-07T10:18:34;1.08;;;0.65;;
72493;SDS011;60520;49.182;-0.348;2023-12-07T10:21:02;2.97;;;0.85;;
72493;SDS011;60520;49.182;-0.348;2023-12-07T10:23:29;0.80;;;0.70;;
72493;SDS011;60520;49.182;-0.348;2023-12-07T10:25:58;1.33;;;0.80;;
72493;SDS011;60520;49.182;-0.348;2023-12-07T10:28:25;2.50;;;0.70;;
72493;SDS011;60520;49.182;-0.348;2023-12-07T10:30:54;1.95;;;0.70;;
72493;SDS011;60520;49.182;-0.348;2023-12-07T10:33:21;2.03;;;0.65;;
72493;SDS011;60520;49.182;-0.348;2023-12-07T10:35:48;3.60;;;0.73;;
72493;SDS011;60520;49.182;-0.348;2023-12-07T10:38:15;3.40;;;0.75;;
72493;SDS011;60520;49.182;-0.348;2023-12-07T10:40:43;1.20;;;0.60;;
72493;SDS011;60520;49.182;-0.348;2023-12-07T10:43:12;2.38;;;0.80;;
72493;SDS011;60520;49.182;-0.348;2023-12-07T10:45:47;1.35;;;0.60;;
72493;SDS011;60520;49.182;-0.348;2023-12-07T10:48:19;2.40;;;0.90;;
72493;SDS011;60520;49.182;-0.348;2023-12-07T10:50:48;1.35;;;0.68;;
72493;SDS011;60520;49.182;-0.348;2023-12-07T10:53:21;1.42;;;0.60;;
72493;SDS011;60520;49.182;-0.348;2023-12-07T10:55:55;3.28;;;0.80;;
72493;SDS011;60520;49.182;-0.348;2023-12-07T10:58:22;2.30;;;0.82;;
72493;SDS011;60520;49.182;-0.348;2023-12-07T11:00:52;1.70;;;0.70;;
72493;SDS011;60520;49.182;-0.348;2023-12-07T11:03:21;1.38;;;0.80;;
72493;SDS011;60520;49.182;-0.348;2023-12-07T11:05:48;1.25;;;0.80;;
72493;SDS011;60520;49.182;-0.348;2023-12-07T11:08:18;1.58;;;0.98;;
72493;SDS011;60520;49.182;-0.348;2023-12-07T11:10:50;2.70;;;0.90;;
72493;SDS011;60520;49.182;-0.348;2023-12-07T11:13:20;1.20;;;0.73;;
72493;SDS011;60520;49.182;-0.348;2023-12-07T11:15:49;3.58;;;0.70;;
72493;SDS011;60520;49.182;-0.348;2023-12-07T11:18:17;1.63;;;0.82;;
72493;SDS011;60520;49.182;-0.348;2023-12-07T11:20:45;0.95;;;0.63;;
72493;SDS011;60520;49.182;-0.348;2023-12-07T11:23:15;1.52;;;0.80;;
72493;SDS011;60520;49.182;-0.348;2023-12-07T11:25:43;2.38;;;1.10;;
72493;SDS011;60520;49.182;-0.348;2023-12-07T11:28:11;1.88;;;0.77;;
72493;SDS011;60520;49.182;-0.348;2023-12-07T11:30:41;1.85;;;0.80;;
72493;SDS011;60520;49.182;-0.348;2023-12-07T11:33:08;1.73;;;0.80;;
72493;SDS011;60520;49.182;-0.348;2023-12-07T11:38:20;1.92;;;0.90;;
72493;SDS011;60520;49.182;-0.348;2023-12-07T11:40:47;2.72;;;0.80;;
72493;SDS011;60520;49.182;-0.348;2023-12-07T11:43:16;2.25;;;1.00;;
72493;SDS011;60520;49.182;-0.348;2023-12-07T11:45:46;2.30;;;0.95;;
72493;SDS011;60520;49.182;-0.348;2023-12-07T11:48:15;1.52;;;0.93;;
72493;SDS011;60520;49.182;-0.348;2023-12-07T11:50:57;1.73;;;1.10;;
72493;SDS011;60520;49.182;-0.348;2023-12-07T11:53:26;1.27;;;0.90;;
72493;SDS011;60520;49.182;-0.348;2023-12-07T11:55:54;1.30;;;0.90;;
72493;SDS011;60520;49.182;-0.348;2023-12-07T11:58:22;2.22;;;1.20;;
72493;SDS011;60520;49.182;-0.348;2023-12-07T12:00:50;1.50;;;1.17;;
72493;SDS011;60520;49.182;-0.348;2023-12-07T12:03:18;3.08;;;1.25;;
72493;SDS011;60520;49.182;-0.348;2023-12-07T12:05:45;2.88;;;1.13;;
72493;SDS011;60520;49.182;-0.348;2023-12-07T12:08:13;2.28;;;1.40;;
72493;SDS011;60520;49.182;-0.348;2023-12-07T12:10:41;2.42;;;1.33;;
72493;SDS011;60520;49.182;-0.348;2023-12-07T12:13:08;2.50;;;1.20;;
72493;SDS011;60520;49.182;-0.348;2023-12-07T12:15:36;2.30;;;1.00;;
72493;SDS011;60520;49.182;-0.348;2023-12-07T12:18:04;2.85;;;1.25;;
72493;SDS011;60520;49.182;-0.348;2023-12-07T12:20:31;1.55;;;1.13;;
72493;SDS011;60520;49.182;-0.348;2023-12-07T12:22:58;1.50;;;1.10;;
72493;SDS011;60520;49.182;-0.348;2023-12-07T12:25:27;2.95;;;1.17;;
72493;SDS011;60520;49.182;-0.348;2023-12-07T12:27:57;1.67;;;1.13;;
72493;SDS011;60520;49.182;-0.348;2023-12-07T12:30:26;3.10;;;1.27;;
72493;SDS011;60520;49.182;-0.348;2023-12-07T12:32:53;4.55;;;1.13;;
72493;SDS011;60520;49.182;-0.348;2023-12-07T12:35:20;3.30;;;1.05;;
72493;SDS011;60520;49.182;-0.348;2023-12-07T12:37:48;2.10;;;1.10;;
72493;SDS011;60520;49.182;-0.348;2023-12-07T12:40:16;2.50;;;1.05;;
72493;SDS011;60520;49.182;-0.348;2023-12-07T12:42:44;1.33;;;1.10;;
72493;SDS011;60520;49.182;-0.348;2023-12-07T12:45:13;1.17;;;0.88;;
72493;SDS011;60520;49.182;-0.348;2023-12-07T12:47:40;2.00;;;1.10;;
72493;SDS011;60520;49.182;-0.348;2023-12-07T12:50:08;0.90;;;0.80;;
72493;SDS011;60520;49.182;-0.348;2023-12-07T12:52:36;1.40;;;0.80;;
72493;SDS011;60520;49.182;-0.348;2023-12-07T12:55:06;2.10;;;0.93;;
72493;SDS011;60520;49.182;-0.348;2023-12-07T12:57:35;3.00;;;1.17;;
72493;SDS011;60520;49.182;-0.348;2023-12-07T13:00:03;3.30;;;0.90;;
72493;SDS011;60520;49.182;-0.348;2023-12-07T13:02:33;3.28;;;1.00;;
72493;SDS011;60520;49.182;-0.348;2023-12-07T13:05:00;1.67;;;0.90;;
72493;SDS011;60520;49.182;-0.348;2023-12-07T13:07:29;1.02;;;0.85;;
72493;SDS011;60520;49.182;-0.348;2023-12-07T13:09:56;1.92;;;1.20;;
72493;SDS011;60520;49.182;-0.348;2023-12-07T13:12:23;4.32;;;1.88;;
72493;SDS011;60520;49.182;-0.348;2023-12-07T13:14:53;5.68;;;1.70;;
72493;SDS011;60520;49.182;-0.348;2023-12-07T13:17:20;3.67;;;1.90;;
72493;SDS011;60520;49.182;-0.348;2023-12-07T13:19:48;5.38;;;3.95;;
72493;SDS011;60520;49.182;-0.348;2023-12-07T13:22:15;7.30;;;5.95;;
72493;SDS011;60520;49.182;-0.348;2023-12-07T13:24:43;8.95;;;5.88;;
72493;SDS011;60520;49.182;-0.348;2023-12-07T13:27:10;5.95;;;4.50;;
72493;SDS011;60520;49.182;-0.348;2023-12-07T13:29:37;8.45;;;4.32;;
72493;SDS011;60520;49.182;-0.348;2023-12-07T13:32:04;7.03;;;4.07;;
72493;SDS011;60520;49.182;-0.348;2023-12-07T13:34:31;6.03;;;4.00;;
72493;SDS011;60520;49.182;-0.348;2023-12-07T13:37:00;5.95;;;3.80;;
72493;SDS011;60520;49.182;-0.348;2023-12-07T13:39:27;6.32;;;3.42;;
72493;SDS011;60520;49.182;-0.348;2023-12-07T13:41:55;4.05;;;3.17;;
72493;SDS011;60520;49.182;-0.348;2023-12-07T13:44:23;6.65;;;3.67;;
72493;SDS011;60520;49.182;-0.348;2023-12-07T13:46:50;4.35;;;3.15;;
72493;SDS011;60520;49.182;-0.348;2023-12-07T13:49:19;9.15;;;3.50;;
72493;SDS011;60520;49.182;-0.348;2023-12-07T13:51:46;4.43;;;3.10;;
72493;SDS011;60520;49.182;-0.348;2023-12-07T13:54:15;7.78;;;2.90;;
72493;SDS011;60520;49.182;-0.348;2023-12-07T13:56:42;5.65;;;3.00;;
72493;SDS011;60520;49.182;-0.348;2023-12-07T13:59:09;5.05;;;2.83;;
72493;SDS011;60520;49.182;-0.348;2023-12-07T14:01:38;7.07;;;2.78;;
72493;SDS011;60520;49.182;-0.348;2023-12-07T14:04:05;6.43;;;2.65;;
72493;SDS011;60520;49.182;-0.348;2023-12-07T14:06:33;5.00;;;2.30;;
72493;SDS011;60520;49.182;-0.348;2023-12-07T14:09:00;5.63;;;2.33;;
72493;SDS011;60520;49.182;-0.348;2023-12-07T14:11:30;7.38;;;2.33;;
72493;SDS011;60520;49.182;-0.348;2023-12-07T14:13:57;4.28;;;2.40;;
72493;SDS011;60520;49.182;-0.348;2023-12-07T14:16:24;3.83;;;2.30;;
72493;SDS011;60520;49.182;-0.348;2023-12-07T14:18:51;4.05;;;2.30;;
72493;SDS011;60520;49.182;-0.348;2023-12-07T14:21:19;4.25;;;2.10;;
72493;SDS011;60520;49.182;-0.348;2023-12-07T14:23:46;3.65;;;2.20;;
72493;SDS011;60520;49.182;-0.348;2023-12-07T14:26:14;2.97;;;2.00;;
72493;SDS011;60520;49.182;-0.348;2023-12-07T14:28:42;6.35;;;2.35;;
72493;SDS011;60520;49.182;-0.348;2023-12-07T14:31:09;5.55;;;2.10;;
72493;SDS011;60520;49.182;-0.348;2023-12-07T14:33:41;5.95;;;2.50;;
72493;SDS011;60520;49.182;-0.348;2023-12-07T14:36:09;3.42;;;2.10;;
72493;SDS011;60520;49.182;-0.348;2023-12-07T14:38:37;4.53;;;2.10;;